Downstream station:
SHEF ID: CDPK1 CEDAR C NR CEDAR POINT, KS
STATION TYPE:
Regulating: Stage = 13.00, Flow = 4031
PRECIP STAGE RIV-FLOW BAT-LOAD
in ft cfs volt
Ccp-Rev Ccp-Rev Ccp-Rev Ccp-Rev
(US/Central)
09/05 00:00 0.00 6.27 668 12.30
09/05 01:00 0.00 6.09 560 12.30
09/05 02:00 0.00 5.93 474 12.24
09/05 03:00 0.00 5.80 410 12.24
09/05 04:00 0.00 5.70 365 12.24
09/05 05:00 0.00 5.61 326 12.24
09/05 06:00 0.00 5.53 295 12.24
09/05 07:00 0.00 5.45 265 12.24
09/05 08:00 0.00 5.39 244 12.24
09/05 09:00 0.00 5.33 224 12.36
09/05 10:00 0.00 5.28 208 12.83
09/05 11:00 0.00 5.23 193 13.00
09/05 12:00 0.00 5.18 178 13.42
09/05 13:00 0.00 5.14 167 13.53
09/05 14:00 0.00 5.10 156 13.53
09/05 15:00 0.00 5.07 149 13.48
09/05 16:00 0.00 5.04 141 13.42
09/05 17:00 0.00 5.01 134 13.30
09/05 18:00 0.00 4.98 127 12.60
09/05 19:00 0.00 4.96 122 12.48
09/05 20:00 0.00 4.93 116 12.36
09/05 21:00 0.00 4.91 111 12.36
09/05 22:00 0.00 4.89 107 12.36
09/05 23:00 0.00 4.87 103 12.30